createdAt,value
2022-09-18T00:01:27.880Z,0.80
2022-09-18T00:03:55.371Z,0.60
2022-09-18T00:06:22.978Z,0.33
2022-09-18T00:08:53.400Z,0.60
2022-09-18T00:11:20.999Z,0.70
2022-09-18T00:13:47.716Z,0.50
2022-09-18T00:16:15.180Z,0.60
2022-09-18T00:18:42.655Z,0.97
2022-09-18T00:21:12.857Z,0.60
2022-09-18T00:23:39.526Z,0.57
2022-09-18T00:26:06.285Z,0.80
2022-09-18T00:28:33.330Z,0.67
2022-09-18T00:31:08.968Z,0.85
2022-09-18T00:33:36.086Z,0.80
2022-09-18T00:36:03.861Z,0.60
2022-09-18T00:38:32.284Z,0.70
2022-09-18T00:40:59.692Z,0.60
2022-09-18T00:43:27.283Z,0.63
2022-09-18T00:45:56.008Z,0.70
2022-09-18T00:48:23.691Z,0.90
2022-09-18T00:50:50.249Z,1.03
2022-09-18T00:53:16.683Z,1.10
2022-09-18T00:55:43.371Z,1.60
2022-09-18T00:58:10.158Z,1.67
2022-09-18T01:00:36.840Z,1.07
2022-09-18T01:03:03.935Z,1.87
2022-09-18T01:05:48.468Z,1.60
2022-09-18T01:08:27.124Z,2.00
2022-09-18T01:10:53.562Z,1.90
2022-09-18T01:13:30.707Z,2.10
2022-09-18T01:16:17.919Z,2.23
2022-09-18T01:18:53.047Z,1.60
2022-09-18T01:21:25.472Z,1.43
2022-09-18T01:23:55.105Z,0.83
2022-09-18T01:26:41.808Z,1.10
2022-09-18T01:29:14.040Z,1.13
2022-09-18T01:31:55.694Z,1.10
2022-09-18T01:34:25.183Z,1.30
2022-09-18T01:36:53.537Z,1.33
2022-09-18T01:39:27.588Z,1.27
2022-09-18T01:41:55.038Z,1.57
2022-09-18T01:44:23.312Z,1.83
2022-09-18T01:46:50.790Z,2.03
2022-09-18T01:49:19.295Z,2.77
2022-09-18T01:51:54.832Z,2.80
2022-09-18T01:54:24.051Z,3.07
2022-09-18T01:57:04.617Z,2.90
2022-09-18T01:59:39.905Z,2.40
2022-09-18T02:02:10.833Z,3.07
2022-09-18T02:04:40.101Z,3.23
2022-09-18T02:07:19.393Z,3.10
2022-09-18T02:09:46.011Z,3.53
2022-09-18T02:12:14.779Z,3.53
2022-09-18T02:14:42.943Z,3.33
2022-09-18T02:17:14.978Z,2.87
2022-09-18T02:19:46.524Z,2.70
2022-09-18T02:22:15.527Z,2.33
2022-09-18T02:24:44.411Z,2.30
2022-09-18T02:27:12.323Z,2.40
2022-09-18T02:29:39.080Z,2.03
2022-09-18T02:32:05.668Z,1.50
2022-09-18T02:34:32.705Z,1.57
2022-09-18T02:37:19.357Z,1.33
2022-09-18T02:39:58.058Z,0.90
2022-09-18T02:42:27.265Z,0.87
2022-09-18T02:44:53.675Z,1.10
2022-09-18T02:47:26.179Z,1.40
2022-09-18T02:49:55.620Z,1.13
2022-09-18T02:52:32.787Z,1.13
2022-09-18T02:55:05.011Z,1.00
2022-09-18T02:57:44.091Z,1.20
2022-09-18T03:00:17.117Z,1.23
2022-09-18T03:02:43.764Z,1.07
2022-09-18T03:05:11.418Z,1.20
2022-09-18T03:07:37.901Z,1.57
2022-09-18T03:10:04.496Z,1.50
2022-09-18T03:12:31.310Z,1.40
2022-09-18T03:14:57.798Z,1.30
2022-09-18T03:17:24.219Z,1.00
2022-09-18T03:19:50.679Z,1.10
2022-09-18T03:22:17.165Z,1.20
2022-09-18T03:24:43.593Z,1.57
2022-09-18T03:27:10.821Z,1.50
2022-09-18T03:29:37.251Z,1.17
2022-09-18T03:32:03.990Z,1.23
2022-09-18T03:34:30.452Z,1.20
2022-09-18T03:36:57.094Z,0.73
2022-09-18T03:39:23.501Z,0.87
2022-09-18T03:41:49.986Z,1.00
2022-09-18T03:44:16.397Z,0.60
2022-09-18T03:46:42.851Z,0.70
2022-09-18T03:49:09.316Z,0.60
2022-09-18T03:51:35.773Z,0.50
2022-09-18T03:54:02.350Z,0.40
2022-09-18T03:56:28.850Z,0.60
2022-09-18T03:58:55.391Z,0.40
2022-09-18T04:01:21.866Z,0.50
2022-09-18T04:03:55.839Z,0.43
2022-09-18T04:06:22.340Z,0.60
2022-09-18T04:08:48.916Z,0.50
2022-09-18T04:11:15.386Z,0.50
2022-09-18T04:13:42.060Z,0.40
2022-09-18T04:16:08.570Z,0.50
2022-09-18T04:18:35.122Z,0.37
2022-09-18T04:21:01.614Z,0.40
2022-09-18T04:23:28.074Z,0.40
2022-09-18T04:25:54.745Z,0.30
2022-09-18T04:28:21.235Z,0.50
2022-09-18T04:30:48.037Z,0.30
2022-09-18T04:33:15.977Z,0.40
2022-09-18T04:35:42.705Z,0.43
2022-09-18T04:38:11.078Z,0.73
2022-09-18T04:40:37.681Z,0.40
2022-09-18T04:43:05.493Z,0.40
2022-09-18T04:45:31.925Z,0.40
2022-09-18T04:47:58.369Z,0.67
2022-09-18T04:50:24.801Z,0.70
2022-09-18T04:52:51.206Z,0.53
2022-09-18T04:55:17.619Z,0.53
2022-09-18T04:57:44.030Z,0.60
2022-09-18T05:00:10.816Z,0.67
2022-09-18T05:02:38.886Z,0.77
2022-09-18T05:05:05.663Z,0.60
2022-09-18T05:07:32.177Z,0.80
2022-09-18T05:09:58.629Z,0.87
2022-09-18T05:12:25.248Z,0.60
2022-09-18T05:14:51.715Z,1.10
2022-09-18T05:17:18.183Z,0.50
2022-09-18T05:19:44.615Z,0.70
2022-09-18T05:22:11.029Z,0.63
2022-09-18T05:24:37.621Z,0.90
2022-09-18T05:27:04.177Z,0.60
2022-09-18T05:29:30.638Z,0.80
2022-09-18T05:31:57.220Z,0.80
2022-09-18T05:34:23.641Z,0.70
2022-09-18T05:36:50.081Z,0.77
2022-09-18T05:39:17.797Z,0.77
2022-09-18T05:41:44.419Z,1.10
2022-09-18T05:44:10.832Z,0.80
2022-09-18T05:46:37.331Z,0.67
2022-09-18T05:49:06.370Z,0.90
2022-09-18T05:51:32.863Z,1.00
2022-09-18T05:53:59.337Z,0.87
2022-09-18T05:56:27.293Z,1.10
2022-09-18T05:58:54.229Z,0.73
2022-09-18T06:01:20.751Z,1.30
2022-09-18T06:03:50.057Z,1.10
2022-09-18T06:06:16.648Z,1.20
2022-09-18T06:08:43.149Z,1.37
2022-09-18T06:11:09.586Z,0.90
2022-09-18T06:13:36.013Z,0.90
2022-09-18T06:16:02.638Z,0.90
2022-09-18T06:18:29.113Z,1.27
2022-09-18T06:20:56.764Z,1.07
2022-09-18T06:23:23.915Z,1.10
2022-09-18T06:26:00.332Z,1.17
2022-09-18T06:28:26.915Z,0.97
2022-09-18T06:30:53.385Z,1.23
2022-09-18T06:33:19.872Z,1.10
2022-09-18T06:35:49.143Z,1.30
2022-09-18T06:38:16.141Z,1.40
2022-09-18T06:40:52.519Z,1.23
2022-09-18T06:43:19.549Z,1.50
2022-09-18T06:45:52.997Z,1.62
2022-09-18T06:48:19.470Z,1.60
2022-09-18T06:50:50.876Z,1.40
2022-09-18T06:53:17.415Z,1.37
2022-09-18T06:55:43.837Z,1.40
2022-09-18T06:58:10.268Z,1.20
2022-09-18T07:00:36.720Z,1.20
2022-09-18T07:03:03.785Z,1.10
2022-09-18T07:05:31.513Z,1.13
2022-09-18T07:07:58.004Z,1.20
2022-09-18T07:10:24.998Z,0.90
2022-09-18T07:12:58.402Z,1.20
2022-09-18T07:15:25.529Z,1.03
2022-09-18T07:17:52.689Z,1.00
2022-09-18T07:20:19.964Z,1.37
2022-09-18T07:22:52.607Z,1.40
2022-09-18T07:25:19.046Z,1.10
2022-09-18T07:27:45.558Z,1.20
2022-09-18T07:30:12.197Z,1.53
2022-09-18T07:32:38.682Z,1.40
2022-09-18T07:35:05.353Z,1.70
2022-09-18T07:37:33.598Z,1.57
2022-09-18T07:40:00.245Z,1.40
2022-09-18T07:42:27.099Z,1.43
2022-09-18T07:44:53.976Z,1.57
2022-09-18T07:47:20.520Z,1.30
2022-09-18T07:49:46.971Z,1.63
2022-09-18T07:52:13.466Z,1.63
2022-09-18T07:54:39.905Z,1.33
2022-09-18T07:57:06.386Z,1.53
2022-09-18T07:59:32.905Z,1.10
2022-09-18T08:01:59.494Z,1.07
2022-09-18T08:04:26.135Z,3.33
2022-09-18T08:06:58.053Z,1.30
2022-09-18T08:09:24.577Z,1.50
2022-09-18T08:11:54.236Z,1.50
2022-09-18T08:14:21.945Z,1.40
2022-09-18T08:16:50.840Z,2.10
2022-09-18T08:19:17.306Z,0.90
2022-09-18T08:21:43.738Z,1.37
2022-09-18T08:24:10.160Z,1.20
2022-09-18T08:26:38.701Z,1.10
2022-09-18T08:29:06.231Z,1.50
2022-09-18T08:31:32.671Z,0.90
2022-09-18T08:33:59.185Z,1.10
2022-09-18T08:36:25.631Z,1.17
2022-09-18T08:38:55.959Z,1.17
2022-09-18T08:41:25.561Z,1.70
2022-09-18T08:44:10.459Z,1.50
2022-09-18T08:46:40.050Z,1.40
2022-09-18T08:49:06.520Z,1.00
2022-09-18T08:51:37.611Z,1.07
2022-09-18T08:54:18.020Z,1.50
2022-09-18T08:56:44.900Z,1.40
2022-09-18T08:59:14.301Z,1.10
2022-09-18T09:01:45.297Z,1.40
2022-09-18T09:04:19.271Z,1.30
2022-09-18T09:06:54.854Z,1.67
2022-09-18T09:09:22.611Z,1.37
2022-09-18T09:12:03.416Z,1.33
2022-09-18T09:14:56.153Z,1.17
2022-09-18T09:17:37.773Z,1.20
2022-09-18T09:20:20.217Z,1.30
2022-09-18T09:23:03.141Z,1.27
2022-09-18T09:25:43.103Z,1.03
2022-09-18T09:28:17.036Z,0.90
2022-09-18T09:30:46.239Z,1.10
2022-09-18T09:33:21.460Z,1.17
2022-09-18T09:35:54.227Z,1.43
2022-09-18T09:38:29.961Z,1.50
2022-09-18T09:40:57.026Z,1.10
2022-09-18T09:43:47.451Z,1.20
2022-09-18T09:46:23.168Z,1.03
2022-09-18T09:49:07.532Z,1.07
2022-09-18T09:51:33.988Z,1.67
2022-09-18T09:54:01.280Z,1.10
2022-09-18T09:56:28.827Z,1.50
2022-09-18T09:58:59.237Z,1.47
2022-09-18T10:01:34.932Z,1.67
2022-09-18T10:04:01.405Z,1.93
2022-09-18T10:06:47.900Z,1.33
2022-09-18T10:09:17.134Z,1.67
2022-09-18T10:11:49.201Z,1.23
2022-09-18T10:14:18.423Z,1.30
2022-09-18T10:16:50.588Z,1.67
2022-09-18T10:19:18.805Z,1.20
2022-09-18T10:21:45.634Z,1.30
2022-09-18T10:24:18.099Z,1.40
2022-09-18T10:27:04.749Z,1.70
2022-09-18T10:29:35.543Z,1.40
2022-09-18T10:32:03.320Z,1.30
2022-09-18T10:34:31.615Z,1.27
2022-09-18T10:36:58.111Z,1.40
2022-09-18T10:39:32.037Z,1.53
2022-09-18T10:41:59.694Z,1.67
2022-09-18T10:44:36.340Z,1.30
2022-09-18T10:47:20.336Z,1.20
2022-09-18T10:50:06.355Z,1.10
2022-09-18T10:52:32.855Z,1.00
2022-09-18T10:55:02.450Z,1.00
2022-09-18T10:57:33.241Z,1.03
2022-09-18T11:00:00.052Z,1.40
2022-09-18T11:02:28.934Z,1.10
2022-09-18T11:04:55.825Z,1.00
2022-09-18T11:07:25.824Z,1.33
2022-09-18T11:09:52.690Z,0.80
2022-09-18T11:12:27.336Z,0.80
2022-09-18T11:15:01.118Z,0.90
2022-09-18T11:17:31.512Z,0.70
2022-09-18T11:19:59.230Z,0.77
2022-09-18T11:22:37.382Z,0.93
2022-09-18T11:25:22.437Z,0.93
2022-09-18T11:27:58.721Z,0.97
2022-09-18T11:30:34.303Z,1.00
2022-09-18T11:33:19.325Z,1.07
2022-09-18T11:35:46.647Z,1.07
2022-09-18T11:38:15.814Z,1.10
2022-09-18T11:40:48.494Z,1.27
2022-09-18T11:43:16.566Z,1.00
2022-09-18T11:45:42.976Z,1.10
2022-09-18T11:48:18.409Z,1.27
2022-09-18T11:50:45.348Z,1.20
2022-09-18T11:53:17.838Z,1.00
2022-09-18T11:55:49.701Z,1.10
2022-09-18T11:58:23.072Z,1.10
2022-09-18T12:01:07.969Z,0.90
2022-09-18T12:03:36.184Z,1.50
2022-09-18T12:06:17.315Z,1.03
2022-09-18T12:08:42.356Z,0.90
2022-09-18T12:11:20.662Z,1.40
2022-09-18T12:14:05.521Z,1.33
2022-09-18T12:16:32.051Z,1.23
2022-09-18T12:19:03.707Z,0.90
2022-09-18T12:21:34.973Z,1.00
2022-09-18T12:24:01.496Z,1.10
2022-09-18T12:26:35.964Z,0.90
2022-09-18T12:29:18.470Z,1.00
2022-09-18T12:32:00.306Z,1.00
2022-09-18T12:34:27.064Z,1.30
2022-09-18T12:37:10.266Z,1.03
2022-09-18T12:39:37.427Z,1.20
2022-09-18T12:42:12.834Z,1.40
2022-09-18T12:44:48.140Z,1.20
2022-09-18T12:47:14.827Z,1.40
2022-09-18T12:49:47.346Z,1.10
2022-09-18T12:52:16.776Z,1.20
2022-09-18T12:55:16.758Z,1.10
2022-09-18T12:57:46.218Z,1.20
2022-09-18T13:00:14.193Z,1.20
2022-09-18T13:02:55.126Z,1.37
2022-09-18T13:05:28.134Z,1.13
2022-09-18T13:07:54.570Z,1.30
2022-09-18T13:10:21.238Z,1.10
2022-09-18T13:12:56.648Z,1.13
2022-09-18T13:15:35.316Z,1.00
2022-09-18T13:18:09.776Z,1.00
2022-09-18T13:20:41.217Z,1.20
2022-09-18T13:23:13.871Z,1.20
2022-09-18T13:25:40.953Z,1.07
2022-09-18T13:28:11.161Z,1.30
2022-09-18T13:30:37.756Z,1.27
2022-09-18T13:33:04.928Z,1.50
2022-09-18T13:35:34.186Z,1.20
2022-09-18T13:38:13.001Z,1.00
2022-09-18T13:40:41.863Z,1.30
2022-09-18T13:43:26.872Z,1.10
2022-09-18T13:45:53.815Z,1.23
2022-09-18T13:48:29.748Z,1.33
2022-09-18T13:50:57.670Z,1.90
2022-09-18T13:53:31.932Z,1.37
2022-09-18T14:08:10.105Z,1.80
2022-09-18T14:10:45.225Z,2.03
2022-09-18T14:13:24.460Z,1.70
2022-09-18T14:15:50.920Z,1.47
2022-09-18T14:18:21.383Z,1.60
2022-09-18T14:20:52.391Z,1.40
2022-09-18T14:23:37.147Z,1.10
2022-09-18T14:26:39.217Z,1.20
2022-09-18T14:29:10.792Z,1.00
2022-09-18T14:31:39.200Z,1.43
2022-09-18T14:34:10.533Z,1.60
2022-09-18T14:36:47.174Z,1.60
2022-09-18T14:39:26.570Z,1.47
2022-09-18T14:41:57.512Z,1.07
2022-09-18T14:44:24.538Z,1.23
2022-09-18T14:46:55.755Z,1.33
2022-09-18T14:49:40.932Z,1.00
2022-09-18T14:52:20.019Z,1.20
2022-09-18T14:54:47.812Z,1.20
2022-09-18T14:57:15.596Z,0.97
2022-09-18T14:59:42.220Z,1.30
2022-09-18T15:02:19.365Z,1.40
2022-09-18T15:04:46.112Z,1.27
2022-09-18T15:07:19.799Z,1.27
2022-09-18T15:09:49.065Z,1.20
2022-09-18T15:12:18.108Z,0.80
2022-09-18T15:14:47.690Z,1.77
2022-09-18T15:17:24.942Z,0.80
2022-09-18T15:20:14.859Z,1.13
2022-09-18T15:22:41.752Z,0.80
2022-09-18T15:25:14.812Z,1.00
2022-09-18T15:27:41.792Z,0.97
2022-09-18T15:30:14.575Z,1.10
2022-09-18T15:32:44.239Z,1.17
2022-09-18T15:35:18.337Z,1.90
2022-09-18T15:37:49.670Z,0.90
2022-09-18T15:40:20.900Z,0.67
2022-09-18T15:43:04.262Z,1.00
2022-09-18T15:45:34.739Z,1.30
2022-09-18T15:48:03.519Z,1.53
2022-09-18T15:50:35.057Z,0.70
2022-09-18T15:53:06.085Z,1.27
2022-09-18T15:56:01.852Z,0.90
2022-09-18T15:58:28.297Z,1.03
2022-09-18T16:00:56.020Z,1.00
2022-09-18T16:03:22.548Z,0.90
2022-09-18T16:05:53.227Z,0.73
2022-09-18T16:08:21.047Z,0.90
2022-09-18T16:10:49.133Z,1.00
2022-09-18T16:13:15.546Z,0.50
2022-09-18T16:15:47.409Z,0.60
2022-09-18T16:18:16.816Z,0.83
2022-09-18T16:20:58.758Z,0.90
2022-09-18T16:23:44.531Z,1.10
2022-09-18T16:26:20.166Z,1.00
2022-09-18T16:28:48.236Z,0.80
2022-09-18T16:31:16.379Z,0.77
2022-09-18T16:33:57.114Z,0.90
2022-09-18T16:36:28.002Z,1.00
2022-09-18T16:38:55.416Z,0.90
2022-09-18T16:41:22.241Z,1.03
2022-09-18T16:43:48.927Z,0.73
2022-09-18T16:46:15.849Z,0.87
2022-09-18T16:48:42.687Z,0.90
2022-09-18T16:51:09.129Z,0.70
2022-09-18T16:53:36.040Z,0.87
2022-09-18T16:56:03.143Z,0.53
2022-09-18T16:58:29.902Z,0.70
2022-09-18T17:00:56.865Z,0.80
2022-09-18T17:03:24.644Z,0.47
2022-09-18T17:05:51.092Z,0.80
2022-09-18T17:08:17.540Z,0.60
2022-09-18T17:10:45.276Z,0.67
2022-09-18T17:13:12.670Z,1.53
2022-09-18T17:15:39.207Z,1.00
2022-09-18T17:18:05.713Z,0.80
2022-09-18T17:20:33.148Z,0.80
2022-09-18T17:22:59.639Z,0.63
2022-09-18T17:25:26.126Z,0.90
2022-09-18T17:27:52.835Z,0.80
2022-09-18T17:30:19.920Z,0.70
2022-09-18T17:32:47.519Z,0.60
2022-09-18T17:35:14.177Z,0.77
2022-09-18T17:37:40.987Z,0.70
2022-09-18T17:40:07.746Z,0.67
2022-09-18T17:42:34.208Z,0.77
2022-09-18T17:45:00.649Z,0.83
2022-09-18T17:47:27.102Z,0.80
2022-09-18T17:49:53.554Z,0.50
2022-09-18T17:52:20.019Z,0.60
2022-09-18T17:54:46.534Z,0.90
2022-09-18T17:57:13.111Z,0.90
2022-09-18T17:59:40.128Z,0.67
2022-09-18T18:02:07.476Z,0.83
2022-09-18T18:04:34.004Z,0.80
2022-09-18T18:07:00.444Z,0.70
2022-09-18T18:09:26.901Z,0.80
2022-09-18T18:12:02.520Z,0.73
2022-09-18T18:14:31.293Z,0.63
2022-09-18T18:17:04.904Z,0.78
2022-09-18T18:19:31.386Z,0.70
2022-09-18T18:21:57.828Z,0.63
2022-09-18T18:24:24.671Z,0.70
2022-09-18T18:26:51.123Z,0.80
2022-09-18T18:29:18.335Z,0.63
2022-09-18T18:31:45.878Z,0.67
2022-09-18T18:34:12.409Z,0.93
2022-09-18T18:36:40.532Z,0.70
2022-09-18T18:39:10.426Z,0.70
2022-09-18T18:41:37.255Z,0.50
2022-09-18T18:44:05.693Z,0.70
2022-09-18T18:46:38.778Z,0.70
2022-09-18T18:49:09.447Z,0.60
2022-09-18T18:51:37.495Z,0.83
2022-09-18T18:54:05.398Z,0.63
2022-09-18T18:56:34.181Z,0.40
2022-09-18T18:59:01.498Z,0.50
2022-09-18T19:01:28.724Z,0.60
2022-09-18T19:03:59.925Z,0.90
2022-09-18T19:06:27.142Z,0.70
2022-09-18T19:09:01.130Z,0.50
2022-09-18T19:11:29.420Z,0.60
2022-09-18T19:13:56.845Z,0.70
2022-09-18T19:16:24.645Z,0.80
2022-09-18T19:18:52.752Z,0.53
2022-09-18T19:21:20.693Z,0.67
2022-09-18T19:23:52.024Z,0.60
2022-09-18T19:26:19.459Z,0.70
2022-09-18T19:28:48.605Z,0.67
2022-09-18T19:31:15.098Z,0.70
2022-09-18T19:33:41.618Z,0.63
2022-09-18T19:36:08.123Z,0.63
2022-09-18T19:38:36.972Z,0.50
2022-09-18T19:41:10.484Z,0.60
2022-09-18T19:43:37.302Z,0.60
2022-09-18T19:46:06.775Z,0.53
2022-09-18T19:48:33.559Z,0.50
2022-09-18T19:51:00.124Z,0.60
2022-09-18T19:53:27.438Z,0.50
2022-09-18T19:55:54.079Z,0.50
2022-09-18T19:58:20.617Z,0.60
2022-09-18T20:00:47.176Z,0.90
2022-09-18T20:03:14.602Z,0.67
2022-09-18T20:05:41.984Z,0.70
2022-09-18T20:08:08.958Z,0.50
2022-09-18T20:10:36.545Z,0.50
2022-09-18T20:13:03.249Z,0.70
2022-09-18T20:15:29.785Z,0.70
2022-09-18T20:17:58.181Z,0.70
2022-09-18T20:20:25.637Z,0.60
2022-09-18T20:22:53.088Z,0.90
2022-09-18T20:25:19.696Z,0.60
2022-09-18T20:27:46.135Z,0.43
2022-09-18T20:30:12.905Z,0.40
2022-09-18T20:32:39.627Z,0.67
2022-09-18T20:35:06.296Z,0.80
2022-09-18T20:37:35.382Z,0.50
2022-09-18T20:40:02.687Z,0.60
2022-09-18T20:42:31.716Z,0.60
2022-09-18T20:45:02.104Z,0.77
2022-09-18T20:47:31.841Z,0.60
2022-09-18T20:49:58.332Z,0.50
2022-09-18T20:52:24.767Z,0.40
2022-09-18T20:54:52.009Z,0.67
2022-09-18T20:57:18.852Z,0.40
2022-09-18T20:59:45.280Z,0.60
2022-09-18T21:02:12.052Z,0.60
2022-09-18T21:04:39.150Z,0.53
2022-09-18T21:07:05.853Z,0.63
2022-09-18T21:09:32.332Z,0.70
2022-09-18T21:11:58.818Z,0.50
2022-09-18T21:14:25.573Z,0.70
2022-09-18T21:16:53.023Z,0.70
2022-09-18T21:19:19.620Z,0.80
2022-09-18T21:21:49.384Z,0.60
2022-09-18T21:24:17.519Z,0.57
2022-09-18T21:26:44.974Z,0.60
2022-09-18T21:29:22.786Z,0.50
2022-09-18T21:31:50.568Z,0.53
2022-09-18T21:34:23.473Z,0.50
2022-09-18T21:36:50.348Z,0.80
2022-09-18T21:39:16.784Z,0.83
2022-09-18T21:41:46.540Z,1.23
2022-09-18T21:44:17.320Z,0.73
2022-09-18T21:46:45.933Z,0.70
2022-09-18T21:49:13.011Z,0.60
2022-09-18T21:51:42.602Z,0.50
2022-09-18T21:54:14.570Z,0.70
2022-09-18T21:56:41.533Z,0.63
2022-09-18T21:59:10.079Z,0.60
2022-09-18T22:01:38.188Z,0.70
2022-09-18T22:04:06.850Z,0.70
2022-09-18T22:06:35.875Z,0.80
2022-09-18T22:09:06.060Z,0.80
2022-09-18T22:11:33.067Z,0.50
2022-09-18T22:13:59.694Z,0.70
2022-09-18T22:16:27.624Z,0.50
2022-09-18T22:18:54.252Z,0.60
2022-09-18T22:21:33.894Z,1.02
2022-09-18T22:24:07.365Z,0.70
2022-09-18T22:26:35.802Z,0.60
2022-09-18T22:29:05.302Z,0.77
2022-09-18T22:31:33.356Z,0.70
2022-09-18T22:34:00.544Z,0.90
2022-09-18T22:36:27.372Z,0.50
2022-09-18T22:38:54.321Z,0.60
2022-09-18T22:41:21.346Z,0.60
2022-09-18T22:43:47.830Z,1.00
2022-09-18T22:46:15.922Z,0.70
2022-09-18T22:48:43.818Z,0.60
2022-09-18T22:51:10.231Z,0.70
2022-09-18T22:53:37.246Z,0.70
2022-09-18T22:56:10.899Z,0.70
2022-09-18T22:58:37.857Z,0.80
2022-09-18T23:01:10.387Z,0.77
2022-09-18T23:03:37.551Z,0.70
2022-09-18T23:06:04.576Z,0.90
2022-09-18T23:08:33.957Z,0.80
2022-09-18T23:11:01.819Z,0.90
2022-09-18T23:13:28.546Z,1.00
2022-09-18T23:15:55.338Z,0.70
2022-09-18T23:18:21.778Z,1.10
2022-09-18T23:20:48.216Z,0.83
2022-09-18T23:23:14.614Z,0.70
2022-09-18T23:25:41.036Z,1.20
2022-09-18T23:28:07.666Z,1.00
2022-09-18T23:30:35.960Z,1.10
2022-09-18T23:33:02.473Z,1.00
2022-09-18T23:35:29.074Z,1.03
2022-09-18T23:37:56.466Z,1.00
2022-09-18T23:40:22.994Z,1.43
2022-09-18T23:42:49.538Z,1.20
2022-09-18T23:45:16.013Z,1.50
2022-09-18T23:47:42.436Z,1.10
2022-09-18T23:50:08.880Z,1.40
2022-09-18T23:52:35.306Z,1.20
2022-09-18T23:55:01.755Z,1.00
2022-09-18T23:57:28.572Z,1.00
2022-09-18T23:59:58.615Z,1.30
